sim
Sign-in with your pilot id or email,
or register
Callsign
Passwort

Schedule Details

Flight Number: RYR16 (5)
Departure: Athens Eleftherios Venizelos (LGAV) at 09:25
Arrival: Thessaloniki International Airport (LGTS) at 10:25
Route: Ryanair Passenger Schedule. Enter filed route here before submitting Pirep.

Weather Information
Getting current METAR information for LGAV 211750Z 01006KT CAVOK 27/12 Q1016 NOSIG
Getting current METAR information for LGTS 211750Z 16005KT CAVOK 29/13 Q1016 NOSIG

Schedule Frequency

Route Map